createdAt,value
2019-04-29T00:00:18.473Z,7.08
2019-04-29T00:02:48.174Z,5.80
2019-04-29T00:05:15.887Z,6.92
2019-04-29T00:07:43.687Z,6.25
2019-04-29T00:10:14.016Z,6.40
2019-04-29T00:12:41.930Z,6.17
2019-04-29T00:15:29.027Z,6.67
2019-04-29T00:17:58.130Z,6.95
2019-04-29T00:20:32.955Z,6.37
2019-04-29T00:23:00.243Z,6.37
2019-04-29T00:25:27.396Z,6.20
2019-04-29T00:27:55.365Z,6.95
2019-04-29T00:30:22.950Z,6.50
2019-04-29T00:32:50.627Z,6.62
2019-04-29T00:35:17.980Z,6.75
2019-04-29T00:37:56.096Z,6.62
2019-04-29T00:40:42.012Z,7.40
2019-04-29T00:43:11.424Z,6.58
2019-04-29T00:45:39.237Z,6.67
2019-04-29T00:48:06.740Z,6.72
2019-04-29T00:50:34.265Z,6.78
2019-04-29T00:53:01.758Z,6.70
2019-04-29T00:55:33.501Z,5.97
2019-04-29T00:58:00.947Z,6.53
2019-04-29T01:00:30.720Z,6.78
2019-04-29T01:02:58.854Z,7.58
2019-04-29T01:05:26.518Z,6.87
2019-04-29T01:07:54.260Z,7.67
2019-04-29T01:10:22.104Z,7.50
2019-04-29T01:12:49.597Z,8.05
2019-04-29T01:15:17.271Z,7.40
2019-04-29T01:17:44.874Z,7.20
2019-04-29T01:20:12.951Z,7.20
2019-04-29T01:22:41.471Z,8.03
2019-04-29T01:25:09.470Z,8.20
2019-04-29T01:27:57.155Z,8.18
2019-04-29T01:31:02.160Z,7.87
2019-04-29T01:33:29.796Z,8.08
2019-04-29T01:36:17.626Z,7.75
2019-04-29T01:38:48.729Z,6.97
2019-04-29T01:41:24.482Z,8.40
2019-04-29T01:43:59.275Z,8.20
2019-04-29T01:46:27.076Z,8.23
2019-04-29T01:48:54.930Z,7.72
2019-04-29T01:51:22.282Z,7.80
2019-04-29T01:53:50.004Z,7.58
2019-04-29T01:56:17.755Z,8.30
2019-04-29T01:58:45.330Z,8.73
2019-04-29T02:01:12.837Z,7.90
2019-04-29T02:03:41.241Z,8.75
2019-04-29T02:06:08.932Z,9.25
2019-04-29T02:08:36.256Z,8.70
2019-04-29T02:11:03.704Z,8.88
2019-04-29T02:13:30.932Z,8.68
2019-04-29T02:15:59.033Z,8.20
2019-04-29T02:18:27.517Z,8.58
2019-04-29T02:20:55.531Z,8.45
2019-04-29T02:23:24.577Z,10.00
2019-04-29T02:25:52.825Z,9.55
2019-04-29T02:28:20.279Z,9.13
2019-04-29T02:30:48.754Z,9.60
2019-04-29T02:33:16.550Z,9.95
2019-04-29T02:35:44.836Z,9.73
2019-04-29T02:38:19.865Z,9.98
2019-04-29T02:41:01.366Z,9.80
2019-04-29T02:43:31.212Z,9.78
2019-04-29T02:45:58.604Z,9.93
2019-04-29T02:48:30.003Z,9.50
2019-04-29T02:50:54.763Z,10.45
2019-04-29T02:53:22.094Z,11.20
2019-04-29T02:55:51.452Z,10.32
2019-04-29T02:58:32.523Z,9.88
2019-04-29T03:01:18.950Z,11.33
2019-04-29T03:03:54.092Z,9.98
2019-04-29T03:06:21.469Z,10.63
2019-04-29T03:08:48.757Z,11.18
2019-04-29T03:11:17.507Z,11.18
2019-04-29T03:13:44.735Z,11.63
2019-04-29T03:16:11.987Z,12.73
2019-04-29T03:18:41.578Z,10.93
2019-04-29T03:21:14.281Z,11.68
2019-04-29T03:23:41.741Z,11.45
2019-04-29T03:26:09.409Z,12.55
2019-04-29T03:28:36.811Z,11.30
2019-04-29T03:31:04.707Z,12.13
2019-04-29T03:33:33.419Z,11.75
2019-04-29T03:36:00.804Z,11.20
2019-04-29T03:38:28.458Z,12.60
2019-04-29T03:40:56.484Z,11.03
2019-04-29T03:43:23.923Z,12.23
2019-04-29T03:45:51.680Z,13.62
2019-04-29T03:48:19.881Z,12.63
2019-04-29T03:50:47.371Z,12.15
2019-04-29T03:53:14.965Z,13.15
2019-04-29T03:55:42.962Z,12.98
2019-04-29T03:58:10.184Z,13.58
2019-04-29T04:00:37.768Z,14.00
2019-04-29T04:03:07.063Z,14.18
2019-04-29T04:05:45.321Z,14.70
2019-04-29T04:08:31.030Z,13.75
2019-04-29T04:10:59.001Z,14.95
2019-04-29T04:13:26.153Z,14.90
2019-04-29T04:15:53.567Z,13.93
2019-04-29T04:18:22.990Z,15.75
2019-04-29T04:20:50.379Z,13.90
2019-04-29T04:23:17.623Z,15.00
2019-04-29T04:25:45.051Z,14.38
2019-04-29T04:28:13.198Z,16.30
2019-04-29T04:30:40.490Z,16.20
2019-04-29T04:33:07.940Z,16.17
2019-04-29T04:35:35.099Z,14.60
2019-04-29T04:38:02.569Z,14.10
2019-04-29T04:40:35.064Z,14.45
2019-04-29T04:43:03.718Z,15.00
2019-04-29T04:45:31.133Z,14.45
2019-04-29T04:47:58.417Z,14.75
2019-04-29T04:50:25.846Z,14.87
2019-04-29T04:52:53.019Z,13.25
2019-04-29T04:55:22.197Z,13.68
2019-04-29T04:57:50.036Z,13.03
2019-04-29T05:00:22.324Z,14.07
2019-04-29T05:02:50.301Z,14.28
2019-04-29T05:05:18.077Z,13.90
2019-04-29T05:07:45.396Z,13.48
2019-04-29T05:10:12.943Z,14.55
2019-04-29T05:12:40.778Z,14.90
2019-04-29T05:15:09.100Z,14.80
2019-04-29T05:17:37.483Z,12.90
2019-04-29T05:20:05.518Z,14.50
2019-04-29T05:22:32.900Z,15.50
2019-04-29T05:25:00.839Z,13.43
2019-04-29T05:27:28.926Z,12.90
2019-04-29T05:29:57.547Z,12.35
2019-04-29T05:32:24.959Z,14.33
2019-04-29T05:34:55.125Z,14.60
2019-04-29T05:37:41.112Z,14.47
2019-04-29T05:40:08.702Z,12.75
2019-04-29T05:42:36.185Z,13.22
2019-04-29T05:45:08.500Z,14.05
2019-04-29T05:47:37.667Z,14.05
2019-04-29T05:50:18.486Z,13.48
2019-04-29T05:52:49.873Z,14.65
2019-04-29T05:55:18.674Z,13.62
2019-04-29T05:57:46.419Z,13.50
2019-04-29T06:00:18.748Z,13.58
2019-04-29T06:02:43.984Z,14.15
2019-04-29T06:05:11.854Z,12.82
2019-04-29T06:07:39.867Z,12.45
2019-04-29T06:10:07.739Z,13.68
2019-04-29T06:12:35.406Z,14.13
2019-04-29T06:15:03.207Z,13.22
2019-04-29T06:17:31.817Z,13.10
2019-04-29T06:19:59.487Z,12.23
2019-04-29T06:22:27.343Z,12.65
2019-04-29T06:24:54.869Z,12.65
2019-04-29T06:27:22.783Z,11.80
2019-04-29T06:29:51.387Z,12.78
2019-04-29T06:32:20.211Z,11.40
2019-04-29T06:34:48.205Z,13.38
2019-04-29T06:37:15.584Z,12.45
2019-04-29T06:39:43.347Z,11.70
2019-04-29T06:42:10.970Z,11.60
2019-04-29T06:44:38.197Z,11.35
2019-04-29T06:47:05.514Z,12.47
2019-04-29T06:49:33.272Z,10.70
2019-04-29T06:52:01.860Z,11.97
2019-04-29T06:54:29.536Z,10.82
2019-04-29T06:56:57.273Z,11.60
2019-04-29T06:59:24.658Z,11.93
2019-04-29T07:01:52.144Z,10.68
2019-04-29T07:04:19.792Z,10.65
2019-04-29T07:06:57.356Z,11.00
2019-04-29T07:09:18.061Z,11.65
2019-04-29T07:11:45.488Z,10.60
2019-04-29T07:14:12.586Z,11.38
2019-04-29T07:16:40.008Z,10.00
2019-04-29T07:19:07.600Z,10.63
2019-04-29T07:21:35.222Z,10.53
2019-04-29T07:24:02.909Z,11.10
2019-04-29T07:26:30.478Z,10.72
2019-04-29T07:28:58.228Z,10.20
2019-04-29T07:31:28.389Z,10.18
2019-04-29T07:33:57.879Z,10.32
2019-04-29T07:36:24.906Z,10.82
2019-04-29T07:38:56.296Z,9.48
2019-04-29T07:41:21.492Z,9.63
2019-04-29T07:43:48.858Z,9.63
2019-04-29T07:46:25.056Z,9.85
2019-04-29T07:49:01.437Z,11.08
2019-04-29T07:51:22.581Z,10.53
2019-04-29T07:53:50.105Z,10.32
2019-04-29T07:56:17.872Z,10.30
2019-04-29T07:58:48.350Z,10.95
2019-04-29T08:01:15.282Z,10.95
2019-04-29T08:03:42.497Z,11.22
2019-04-29T08:06:10.401Z,10.53
2019-04-29T08:08:38.266Z,9.80
2019-04-29T08:11:08.911Z,11.12
2019-04-29T08:13:37.634Z,9.93
2019-04-29T08:16:05.261Z,10.18
2019-04-29T08:18:32.576Z,8.95
2019-04-29T08:21:00.344Z,9.65
2019-04-29T08:23:27.696Z,9.75
2019-04-29T08:25:57.674Z,9.03
2019-04-29T08:28:24.747Z,9.55
2019-04-29T08:30:52.459Z,8.35
2019-04-29T08:33:19.835Z,8.75
2019-04-29T08:35:47.421Z,8.50
2019-04-29T08:38:14.677Z,8.58
2019-04-29T08:40:45.090Z,8.88
2019-04-29T08:43:20.576Z,8.95
2019-04-29T08:45:51.233Z,8.33
2019-04-29T08:48:19.009Z,9.33
2019-04-29T08:50:46.221Z,9.00
2019-04-29T08:53:13.428Z,8.70
2019-04-29T08:55:40.718Z,8.50
2019-04-29T08:58:11.356Z,7.30
2019-04-29T09:00:37.104Z,6.62
2019-04-29T09:03:04.162Z,6.70
2019-04-29T09:05:31.664Z,7.75
2019-04-29T09:07:59.179Z,6.42
2019-04-29T09:10:27.720Z,7.08
2019-04-29T09:12:55.286Z,6.72
2019-04-29T09:15:22.928Z,6.60
2019-04-29T09:17:50.473Z,6.58
2019-04-29T09:20:18.102Z,7.12
2019-04-29T09:22:47.651Z,6.67
2019-04-29T09:25:28.832Z,7.08
2019-04-29T09:28:06.761Z,7.05
2019-04-29T09:30:34.339Z,6.47
2019-04-29T09:33:02.164Z,6.78
2019-04-29T09:35:33.813Z,6.70
2019-04-29T09:37:59.696Z,6.70
2019-04-29T09:40:29.177Z,6.60
2019-04-29T09:43:16.811Z,6.15
2019-04-29T09:45:46.028Z,5.83
2019-04-29T09:48:13.393Z,6.20
2019-04-29T09:50:41.091Z,7.20
2019-04-29T09:53:08.585Z,6.35
2019-04-29T09:55:39.935Z,6.75
2019-04-29T09:58:06.170Z,6.22
2019-04-29T10:00:36.258Z,6.28
2019-04-29T10:03:20.430Z,6.22
2019-04-29T10:05:49.701Z,6.70
2019-04-29T10:08:17.833Z,5.80
2019-04-29T10:10:45.826Z,6.35
2019-04-29T10:13:13.675Z,5.85
2019-04-29T10:15:46.154Z,6.62
2019-04-29T10:18:18.230Z,5.78
2019-04-29T10:20:50.705Z,5.80
2019-04-29T10:23:18.512Z,6.50
2019-04-29T10:25:46.042Z,6.28
2019-04-29T10:28:13.969Z,6.08
2019-04-29T10:30:41.551Z,5.97
2019-04-29T10:33:12.776Z,5.67
2019-04-29T10:35:40.827Z,6.45
2019-04-29T10:38:07.888Z,6.47
2019-04-29T10:40:46.346Z,6.83
2019-04-29T10:43:35.687Z,6.22
2019-04-29T10:46:15.704Z,6.20
2019-04-29T10:48:47.652Z,7.03
2019-04-29T10:51:16.528Z,6.00
2019-04-29T10:53:46.654Z,6.78
2019-04-29T10:56:13.570Z,6.42
2019-04-29T10:58:41.509Z,6.75
2019-04-29T11:02:09.128Z,6.45
2019-04-29T11:04:36.133Z,7.05
2019-04-29T11:07:26.450Z,7.25
2019-04-29T11:09:54.348Z,6.28
2019-04-29T11:12:21.652Z,6.97
2019-04-29T11:14:49.211Z,7.20
2019-04-29T11:17:19.381Z,6.97
2019-04-29T11:19:46.790Z,6.72
2019-04-29T11:22:15.893Z,7.40
2019-04-29T11:24:48.168Z,6.10
2019-04-29T11:27:17.386Z,6.87
2019-04-29T11:29:44.615Z,6.70
2019-04-29T11:32:24.889Z,7.35
2019-04-29T11:35:04.434Z,6.62
2019-04-29T11:37:31.963Z,6.72
2019-04-29T11:39:59.596Z,7.10
2019-04-29T11:42:26.767Z,6.95
2019-04-29T11:44:57.163Z,6.00
2019-04-29T11:47:25.109Z,7.22
2019-04-29T11:49:54.848Z,7.22
2019-04-29T11:52:23.645Z,6.62
2019-04-29T11:54:51.576Z,7.00
2019-04-29T11:57:21.075Z,6.85
2019-04-29T11:59:50.211Z,8.33
2019-04-29T12:02:23.838Z,7.20
2019-04-29T12:04:56.530Z,7.37
2019-04-29T12:07:31.780Z,6.33
2019-04-29T12:09:53.403Z,6.67
2019-04-29T12:12:22.084Z,6.97
2019-04-29T12:15:03.813Z,6.58
2019-04-29T12:17:34.706Z,6.83
2019-04-29T12:20:15.787Z,6.97
2019-04-29T12:22:48.623Z,6.92
2019-04-29T12:25:13.222Z,7.17
2019-04-29T12:27:41.036Z,7.45
2019-04-29T12:30:12.452Z,7.00
2019-04-29T12:33:01.385Z,6.87
2019-04-29T12:35:35.914Z,7.28
2019-04-29T12:38:21.816Z,7.15
2019-04-29T12:40:55.091Z,8.03
2019-04-29T12:43:25.580Z,7.53
2019-04-29T12:46:10.016Z,7.28
2019-04-29T12:48:38.784Z,7.53
2019-04-29T12:51:05.477Z,7.08
2019-04-29T12:53:32.852Z,7.35
2019-04-29T12:56:00.490Z,7.05
2019-04-29T12:58:27.617Z,7.67
2019-04-29T13:01:01.180Z,6.95
2019-04-29T13:03:39.396Z,7.20
2019-04-29T13:06:23.909Z,6.80
2019-04-29T13:08:56.259Z,7.05
2019-04-29T13:11:37.521Z,6.85
2019-04-29T13:13:59.732Z,7.20
2019-04-29T13:16:27.303Z,7.55
2019-04-29T13:19:10.842Z,7.28
2019-04-29T13:21:28.614Z,7.15
2019-04-29T13:24:12.865Z,7.10
2019-04-29T13:26:28.405Z,6.40
2019-04-29T13:29:01.968Z,7.17
2019-04-29T13:31:37.515Z,6.80
2019-04-29T13:33:55.376Z,6.60
2019-04-29T13:36:25.912Z,6.78
2019-04-29T13:38:52.455Z,7.45
2019-04-29T13:41:24.335Z,6.60
2019-04-29T13:43:52.972Z,6.78
2019-04-29T13:46:22.433Z,7.33
2019-04-29T13:48:56.906Z,6.87
2019-04-29T13:51:37.480Z,6.87
2019-04-29T13:54:06.127Z,7.25
2019-04-29T13:56:54.154Z,6.35
2019-04-29T13:59:10.750Z,6.67
2019-04-29T14:01:58.580Z,7.15
2019-04-29T14:04:29.361Z,7.17
2019-04-29T14:06:57.785Z,6.55
2019-04-29T14:09:25.426Z,7.15
2019-04-29T14:12:01.796Z,6.87
2019-04-29T14:14:24.295Z,6.92
2019-04-29T14:17:08.321Z,6.70
2019-04-29T14:19:40.467Z,6.37
2019-04-29T14:21:51.081Z,7.03
2019-04-29T14:24:18.769Z,7.03
2019-04-29T14:26:47.874Z,6.95
2019-04-29T14:29:16.729Z,6.30
2019-04-29T14:31:46.888Z,6.85
2019-04-29T14:34:34.935Z,6.20
2019-04-29T14:37:18.345Z,6.60
2019-04-29T14:39:37.226Z,6.75
2019-04-29T14:42:10.445Z,6.75
2019-04-29T14:44:46.176Z,7.83
2019-04-29T14:47:18.809Z,6.35
2019-04-29T14:49:55.165Z,6.60
2019-04-29T14:52:22.823Z,6.40
2019-04-29T14:54:50.043Z,6.72
2019-04-29T14:57:18.825Z,6.87
2019-04-29T14:59:46.290Z,7.08
2019-04-29T15:02:18.701Z,6.30
2019-04-29T15:04:45.656Z,6.97
2019-04-29T15:07:13.363Z,6.42
2019-04-29T15:09:55.807Z,7.83
2019-04-29T15:12:51.160Z,7.80
2019-04-29T15:15:22.766Z,6.55
2019-04-29T15:17:52.051Z,6.42
2019-04-29T15:20:25.322Z,6.75
2019-04-29T15:22:51.074Z,6.15
2019-04-29T15:25:20.980Z,6.78
2019-04-29T15:27:49.466Z,7.53
2019-04-29T15:30:17.874Z,6.80
2019-04-29T15:32:45.404Z,5.72
2019-04-29T15:35:13.044Z,6.97
2019-04-29T15:37:40.543Z,6.45
2019-04-29T15:40:09.743Z,7.27
2019-04-29T15:42:42.180Z,7.28
2019-04-29T15:45:07.332Z,6.95
2019-04-29T15:47:35.135Z,6.50
2019-04-29T15:50:17.399Z,5.65
2019-04-29T15:52:32.585Z,5.75
2019-04-29T15:55:01.539Z,5.50
2019-04-29T15:57:29.113Z,5.22
2019-04-29T16:00:01.226Z,5.25
2019-04-29T16:02:27.271Z,5.10
2019-04-29T16:04:56.748Z,5.22
2019-04-29T16:07:26.216Z,5.37
2019-04-29T16:09:58.605Z,5.50
2019-04-29T16:12:34.362Z,5.67
2019-04-29T16:15:03.269Z,5.58
2019-04-29T16:17:31.782Z,5.17
2019-04-29T16:20:00.934Z,5.37
2019-04-29T16:22:28.424Z,5.42
2019-04-29T16:24:59.485Z,5.42
2019-04-29T16:27:25.637Z,5.85
2019-04-29T16:29:54.274Z,6.10
2019-04-29T16:32:32.534Z,5.00
2019-04-29T16:34:59.927Z,6.03
2019-04-29T16:37:32.012Z,5.30
2019-04-29T16:39:59.861Z,4.87
2019-04-29T16:42:31.523Z,5.70
2019-04-29T16:44:59.446Z,5.40
2019-04-29T16:47:28.456Z,5.42
